Tiempo atmosférico en la estación meteorológica de Cabo Vilan, A Coruña (50 m.)



Fecha
DESCASC
Temp. máxima en grados centígrados (hora)
DESCASC
Temp. mínima en grados centígrados (hora)
DESCASC
Temp. media en grados centígrados
DESCASC
Racha de viento máxima en m/sg (hora)
DESCASC
Velocidad máxima media en intervalos de 10 minutos(hora)
DESCASC
Precipitaciones diarias en mm
DESCASC
Precipitaciones de 00:00 a 06:00 en mm
DESCASC
Precipitaciones de 06:00 a 12:00 en mm
DESCASC
Precipitaciones de 12:00 a 18:00 en mm
DESCASC
Precipitaciones de 18:00 a 24:00 en mm
DESCASC
22-04-2019 14.2 (14:40) 9.5 (23:59) 11.8 15.56 (19:30) 10.83 (19:20) 6.6 0 0 0.3 6.3
21-04-2019 15.7 (15:10) 11.3 (07:10) 13.5 14.44 (02:20) 11.67 (02:30) 0 0 0 0 0
20-04-2019 16.5 (13:50) 12.1 (03:30) 14.3 19.17 (14:20) 15.83 (14:10) 0 0 0 0 0
19-04-2019 14.3 (15:10) 12.1 (03:50) 13.2 17.5 (09:30) 14.44 (09:30) 1.6 0 1.6 0 0
18-04-2019 15.9 (16:40) 11.1 (00:00) 13.5 10 (23:20) 8.06 (23:10) 0.8 0.8 0 0 0
17-04-2019 15.6 (13:10) 11.5 (00:00) 13.6 16.67 (13:00) 11.11 (13:10) 0.5 0 0 0.5 0
16-04-2019 -- (--) -- (--) -- -- (--) -- (--) -- 0 -- -- 0
15-04-2019 15.4 (17:10) 11.3 (00:00) 13.3 22.5 (08:20) 15.28 (08:20) 6.2 0 5.7 0.3 0.2
14-04-2019 16 (16:10) 13.6 (00:00) 14.8 13.06 (20:30) 9.17 (16:30) 0.1 0 0 0 0.1
13-04-2019 16.1 (14:20) 10.9 (00:00) 13.5 15.28 (17:30) 10.28 (14:50) 0 0 0 0 0
12-04-2019 16.3 (16:20) 7.6 (00:00) 11.9 8.61 (17:40) 6.67 (17:40) 0 0 0 0 0
11-04-2019 14.4 (14:00) 7.4 (00:00) 10.9 9.72 (20:20) 8.06 (20:30) 0 0 0 0 0
10-04-2019 14.9 (15:30) 10.1 (00:00) 12.5 12.5 (00:30) 8.61 (00:30) 0.7 0.7 0 0 0
09-04-2019 13.8 (16:40) 7.9 (00:00) 10.9 15.83 (00:10) 12.5 (00:10) 7.8 3 1.5 2.2 1.1
08-04-2019 14.7 (16:50) 9.7 (00:00) 12.2 22.5 (20:10) 15 (19:30) 1.2 0.1 0 0.4 0.7
07-04-2019 13 (19:10) 6.6 (00:00) 9.8 15.83 (17:30) 10.83 (20:00) 9.7 0.3 0 3.9 5.5
06-04-2019 12.8 (18:00) 6.8 (00:00) 9.8 20.83 (03:00) 15 (03:00) 14.6 2.7 2.9 0.8 8.2
05-04-2019 13.2 (17:40) 6 (00:00) 9.6 20 (09:00) 15.56 (09:00) 7.2 1.4 1.8 2.7 1.3
04-04-2019 10.9 (19:10) 6.8 (00:00) 8.8 19.44 (15:10) 13.89 (15:10) 19.2 1.1 0.8 16.8 0.5
03-04-2019 12.3 (16:10) 7.7 (00:00) 10 18.06 (21:00) 12.22 (17:40) 2.8 0.3 0.4 0.1 2
02-04-2019 14.5 (16:10) 9.7 (00:00) 12.1 11.39 (01:00) 10 (01:00) 0 0 0 0 0
01-04-2019 15.5 (12:30) 10.4 (00:00) 12.9 16.11 (16:20) 13.89 (16:30) 0 0 0 0 0
31-03-2019 14.4 (16:20) 8.2 (00:00) 11.3 12.22 (18:40) 10.28 (16:00) 0.1 0 0.1 0 0
30-03-2019 15.9 (14:00) 9.2 (00:00) 12.5 8.61 (13:50) 6.94 (13:50) 0 0 0 0 0
29-03-2019 18.5 (12:00) 9.2 (00:00) 13.8 10.28 (00:40) 6.39 (00:20) 0 0 0 0 0
28-03-2019 15.3 (14:00) 9.8 (00:00) 12.6 16.67 (15:10) 12.78 (15:10) 0 0 0 0 0
27-03-2019 16.3 (16:30) 9.3 (00:00) 12.8 17.78 (23:20) 12.5 (21:10) 0 0 0 0 0
26-03-2019 15.6 (12:40) 9.5 (00:00) 12.6 21.67 (00:50) 15.83 (14:40) 0 0 0 0 0
25-03-2019 14.8 (12:40) 10.8 (00:00) 12.8 22.22 (17:20) 17.5 (16:00) 0 0 0 0 0

Gráficas

Temp. máximas Temp. mínimas Temp. medias Precipitaciones Rachas de viento máximas Velocidades máximas media en intervalos de 10 minutos

Datos horarios

Fecha y hora oficial Temperatura (ºC) Velocidad del viento (km/h) Dirección del viento Racha (km/h) Dirección de racha Precipitación (mm) Presión (hPa) Tendencia (hPa) Humedad (%)
2019-04-23 23:00:00 9.2 28 Sudoeste 44 Sudoeste 0.6 -- -- 80
2019-04-23 22:00:00 9.1 26 Sudoeste 44 Sudoeste 0 -- -- 70
2019-04-23 21:00:00 9.8 31 Sudoeste 48 Sudoeste 0 -- -- 65
2019-04-23 20:00:00 11.1 37 Sudoeste 47 Sudoeste 0 -- -- 65
2019-04-23 19:00:00 12.8 29 Sudoeste 41 Sudoeste 0 -- -- 58
2019-04-23 18:00:00 12 33 Sudoeste 46 Sudoeste 0.1 -- -- 65
2019-04-23 17:00:00 12.1 27 Sudoeste 49 Sudoeste 0 -- -- 65
2019-04-23 16:00:00 13.6 26 Oeste 40 Oeste 0 -- -- 58
2019-04-23 15:00:00 12.2 30 Oeste 38 Oeste 0.1 -- -- 65
2019-04-23 14:00:00 10.1 30 Sudoeste 47 Oeste 0 -- -- 72
2019-04-23 13:00:00 11.6 27 Oeste 43 Oeste 0 -- -- 72
2019-04-23 12:00:00 10.4 33 Noroeste 51 Oeste 0.2 -- -- 80
2019-04-23 11:00:00 8.8 36 Oeste 48 Oeste 1.8 -- -- 90
2019-04-23 10:00:00 8.1 15 Noroeste 33 Noroeste 5.9 -- -- 92
2019-04-23 09:00:00 7.1 8 Noroeste 46 Oeste 4 -- -- 92
2019-04-23 08:00:00 8.5 17 Oeste 36 Oeste 1 -- -- 92
2019-04-23 07:00:00 8.8 28 Oeste 44 Sur 3.5 -- -- 91
2019-04-23 06:00:00 9.1 30 Sur 42 Sur 0 -- -- 90
2019-04-23 05:00:00 9.2 21 Sur 41 Sudoeste 0 -- -- 90
2019-04-23 04:00:00 9.3 31 Sudoeste 40 Sudoeste 0 -- -- 92
2019-04-23 03:00:00 9.4 18 Sur 26 Sudoeste 0.1 -- -- 94
2019-04-23 02:00:00 9.4 24 Sudoeste 34 Sudoeste 0 -- -- 94
2019-04-23 01:00:00 9.1 24 Sudoeste 39 Sur 0.5 -- -- 94
2019-04-23 00:00:00 9.7 15 Sur 32 Sur 2.5 -- -- 94
2019-04-22 23:00:00 9.7 16 Sur 24 Sur 0.2 -- -- 94
2019-04-22 22:00:00 9.8 14 Sur 31 Sudoeste 0.7 -- -- 94
2019-04-22 21:00:00 10.6 19 Sudoeste 27 Sudoeste 0.4 -- -- 94
2019-04-22 20:00:00 10.8 25 Noroeste 56 Sudoeste 2.3 -- -- 93
2019-04-22 19:00:00 12.5 34 Sur 49 Sur 0.2 -- -- 90
2019-04-22 18:00:00 13 32 Sur 48 Sur 0.3 -- -- 88
2019-04-22 17:00:00 13.2 33 Sur 47 Sur 0 -- -- 82
2019-04-22 16:00:00 13.5 28 Sur 42 Sur 0 -- -- 82
2019-04-22 15:00:00 13.4 28 Sur 37 Sur 0 -- -- 83
2019-04-22 14:00:00 13.8 29 Sudoeste 37 Sur 0 -- -- 87
2019-04-22 13:00:00 13.3 27 Sudoeste 35 Sudoeste 0 -- -- 92
2019-04-22 12:00:00 12.4 21 Sudoeste 26 Sudoeste 0 -- -- 96
2019-04-22 11:00:00 12.6 12 Sudoeste 17 Sudoeste 0 -- -- 96
2019-04-22 10:00:00 11.9 5 Sudoeste 8 Sudoeste 0 -- -- 96
2019-04-22 09:00:00 11.2 4 Nordeste 12 Este 0 -- -- 96
2019-04-22 08:00:00 11.1 7 Nordeste 12 Nordeste 0 -- -- 96
2019-04-22 07:00:00 11.3 8 Nordeste 14 Nordeste 0 -- -- 96
2019-04-22 06:00:00 11.5 6 Nordeste 11 Norte 0 -- -- 96
2019-04-22 05:00:00 11.5 6 Nordeste 19 Nordeste 0 -- -- 96
2019-04-22 04:00:00 11.8 15 Norte 19 Norte 0 -- -- 94
2019-04-22 03:00:00 11.7 14 Norte 18 Norte 0 -- -- 94
2019-04-22 02:00:00 11.7 9 Nordeste 17 Nordeste 0 -- -- 94
2019-04-22 01:00:00 12.2 12 Nordeste 18 Nordeste 0 -- -- 94
2019-04-22 00:00:00 12.7 9 Este 27 Nordeste 0 -- -- 94
2019-04-21 23:00:00 13.2 21 Nordeste 26 Nordeste 0 -- -- 94
2019-04-21 22:00:00 13.4 22 Nordeste 33 Nordeste 0 -- -- 92
2019-04-21 21:00:00 13.8 23 Nordeste 27 Nordeste 0 -- -- 88
2019-04-21 20:00:00 14.6 22 Nordeste 34 Nordeste 0 -- -- 88
2019-04-21 19:00:00 14.8 31 Nordeste 40 Nordeste 0 -- -- 86
2019-04-21 18:00:00 15.1 33 Nordeste 43 Nordeste 0 -- -- 84
2019-04-21 17:00:00 15.3 36 Nordeste 43 Nordeste 0 -- -- 84
2019-04-21 16:00:00 15.1 32 Nordeste 38 Nordeste 0 -- -- 85
2019-04-21 15:00:00 15.4 29 Nordeste 37 Nordeste 0 -- -- 83
2019-04-21 14:00:00 15.4 32 Nordeste 36 Nordeste 0 -- -- 83
2019-04-21 13:00:00 15.2 27 Nordeste 32 Nordeste 0 -- -- 83
2019-04-21 12:00:00 15.2 23 Nordeste 28 Nordeste 0 -- -- 84
2019-04-21 11:00:00 14.5 24 Nordeste 28 Nordeste 0 -- -- 84
2019-04-21 10:00:00 13.7 9 Nordeste 25 Nordeste 0 -- -- 90
2019-04-21 09:00:00 12.3 11 Nordeste 21 Nordeste 0 -- -- 94
2019-04-21 08:00:00 11.6 16 Nordeste 28 Nordeste 0 -- -- 94
2019-04-21 07:00:00 11.4 14 Nordeste 37 Nordeste 0 -- -- 94
2019-04-21 06:00:00 12.1 24 Nordeste 32 Nordeste 0 -- -- 94
2019-04-21 05:00:00 12.2 22 Nordeste 41 Nordeste 0 -- -- 94
2019-04-21 04:00:00 12.4 28 Nordeste 49 Nordeste 0 -- -- 95
2019-04-21 03:00:00 12.5 42 Nordeste 52 Nordeste 0 -- -- 94
2019-04-21 02:00:00 12.6 42 Nordeste 49 Nordeste 0 -- -- 94
2019-04-21 01:00:00 12.7 36 Nordeste 45 Nordeste 0 -- -- 94
2019-04-21 00:00:00 12.9 33 Nordeste 44 Nordeste 0 -- -- 94
2019-04-20 23:00:00 13.2 30 Nordeste 45 Nordeste 0 -- -- 94
2019-04-20 22:00:00 13.2 34 Nordeste 54 Nordeste 0 -- -- 94
2019-04-20 21:00:00 13.5 43 Nordeste 57 Nordeste 0 -- -- 92
2019-04-20 20:00:00 14 48 Nordeste 60 Nordeste 0 -- -- 86
2019-04-20 19:00:00 14.5 50 Nordeste 65 Nordeste 0 -- -- 76
2019-04-20 18:00:00 14.7 49 Nordeste 69 Nordeste 0 -- -- 74
2019-04-20 17:00:00 15.3 52 Nordeste 68 Nordeste 0 -- -- 65
2019-04-20 16:00:00 15.7 46 Nordeste 62 Nordeste 0 -- -- 65
2019-04-20 15:00:00 15 53 Nordeste 69 Nordeste 0 -- -- 68
2019-04-20 14:00:00 15.8 56 Nordeste 64 Nordeste 0 -- -- 62
2019-04-20 13:00:00 15.3 48 Nordeste 58 Nordeste 0 -- -- 72
2019-04-20 12:00:00 14.8 41 Nordeste 54 Nordeste 0 -- -- 79
2019-04-20 11:00:00 14 40 Nordeste 51 Nordeste 0 -- -- 81
2019-04-20 10:00:00 14.2 16 Nordeste 33 Nordeste 0 -- -- 80
2019-04-20 09:00:00 12.9 20 Nordeste 40 Nordeste 0 -- -- 82
2019-04-20 08:00:00 12.4 31 Nordeste 50 Nordeste 0 -- -- 86
2019-04-20 07:00:00 12.4 33 Nordeste 40 Nordeste 0 -- -- 87
2019-04-20 06:00:00 12.4 29 Nordeste 39 Nordeste 0 -- -- 84
2019-04-20 05:00:00 12.8 27 Nordeste 36 Nordeste 0 -- -- 82
2019-04-20 04:00:00 12.4 21 Este 29 Este 0 -- -- 81
2019-04-20 03:00:00 12.8 15 Nordeste 41 Nordeste 0 -- -- 83
2019-04-20 02:00:00 13.5 14 Nordeste 36 Nordeste 0 -- -- 68
2019-04-20 01:00:00 14 21 Nordeste 44 Nordeste 0 -- -- 68
2019-04-20 00:00:00 13.5 18 Nordeste 36 Nordeste 0 -- -- 80
2019-04-19 23:00:00 13.2 19 Nordeste 33 Este 0 -- -- 89
2019-04-19 22:00:00 13 19 Nordeste 52 Nordeste 0 -- -- 92
2019-04-19 21:00:00 13.3 39 Nordeste 56 Nordeste 0 -- -- 92
2019-04-19 20:00:00 13.5 44 Nordeste 57 Nordeste 0 -- -- 92
2019-04-19 19:00:00 13.6 44 Nordeste 59 Nordeste 0 -- -- 92
2019-04-19 18:00:00 14.1 38 Nordeste 56 Nordeste 0 -- -- 92
2019-04-19 17:00:00 14.2 38 Nordeste 55 Nordeste 0 -- -- 92
2019-04-19 16:00:00 13.8 42 Nordeste 49 Nordeste 0 -- -- 94
2019-04-19 15:00:00 14 35 Nordeste 45 Nordeste 0 -- -- 96
2019-04-19 14:00:00 12.9 32 Nordeste 47 Nordeste 0 -- -- 96
2019-04-19 13:00:00 12.8 37 Nordeste 50 Nordeste 0 -- -- 96
2019-04-19 12:00:00 12.5 41 Nordeste 50 Nordeste 0 -- -- 96
2019-04-19 11:00:00 12.6 43 Nordeste 62 Nordeste 0 -- -- 97
2019-04-19 10:00:00 12.5 44 Nordeste 63 Nordeste 0.2 -- -- 96
2019-04-19 09:00:00 12.5 48 Nordeste 59 Nordeste 1 -- -- 96
2019-04-19 08:00:00 12.4 47 Nordeste 56 Nordeste 0.4 -- -- 96
2019-04-19 07:00:00 12.6 46 Nordeste 56 Nordeste 0 -- -- 94
2019-04-19 06:00:00 12.6 48 Nordeste 57 Nordeste 0 -- -- 94
2019-04-19 05:00:00 12.5 45 Nordeste 52 Nordeste 0 -- -- 94
2019-04-19 04:00:00 12.2 40 Nordeste 51 Norte 0 -- -- 94
2019-04-19 03:00:00 12.4 35 Nordeste 44 Nordeste 0 -- -- 94
2019-04-19 02:00:00 12.7 30 Nordeste 43 Nordeste 0 -- -- 94
2019-04-19 01:00:00 12.7 33 Nordeste 40 Nordeste 0 -- -- 94
2019-04-19 00:00:00 12.9 27 Nordeste 36 Nordeste 0 -- -- 92
2019-04-18 23:00:00 12.9 28 Nordeste 35 Nordeste 0 -- -- 91
2019-04-18 22:00:00 12.8 21 Nordeste 31 Nordeste 0 -- -- 91
2019-04-18 21:00:00 13.3 28 Nordeste 35 Nordeste 0 -- -- 87
2019-04-18 20:00:00 13.5 26 Nordeste 31 Nordeste 0 -- -- 82
2019-04-18 19:00:00 14.6 25 Nordeste 28 Nordeste 0 -- -- 79
2019-04-18 18:00:00 15.5 19 Nordeste 23 Nordeste 0 -- -- 78
2019-04-18 17:00:00 15.8 15 Norte 17 Norte 0 -- -- 79
2019-04-18 16:00:00 14.4 10 Norte 16 Norte 0 -- -- 84
2019-04-18 15:00:00 14.1 14 Norte 19 Nordeste 0 -- -- 85
2019-04-18 14:00:00 13.5 11 Norte 14 Nordeste 0 -- -- 84
2019-04-18 13:00:00 13.8 10 Nordeste 14 Norte 0 -- -- 82
2019-04-18 12:00:00 14.5 7 Norte 10 Norte 0 -- -- 79
2019-04-18 11:00:00 13.9 0 Calma 18 Sur 0 -- -- 79
2019-04-18 10:00:00 13 6 Sur 20 Sudeste 0 -- -- 84
2019-04-18 09:00:00 11.5 13 Sur 23 Sur 0 -- -- 87
2019-04-18 08:00:00 11.3 16 Sudeste 23 Sur 0 -- -- 88
2019-04-18 07:00:00 11.5 9 Sur 31 Sur 0 -- -- 89
2019-04-18 06:00:00 11.9 16 Sur 26 Sur 0 -- -- 89
2019-04-18 05:00:00 12 20 Sur 28 Sudeste 0 -- -- 89
2019-04-18 04:00:00 11.8 13 Sudeste 20 Sudeste 0 -- -- 90
2019-04-18 03:00:00 12.4 10 Sudeste 18 Sur 0.4 -- -- 90
2019-04-18 02:00:00 12.5 10 Sudeste 17 Sudeste 0.4 -- -- 90
2019-04-18 01:00:00 12.5 11 Sudeste 21 Sur 0 -- -- 89
2019-04-18 00:00:00 13 10 Sur 18 Sudeste 0 -- -- 90
2019-04-17 23:00:00 12.9 12 Sudeste 26 Sur 0 -- -- 90
2019-04-17 22:00:00 12.8 15 Sur 32 Sur 0 -- -- 90
2019-04-17 21:00:00 12.9 22 Sur 36 Sur 0 -- -- 90
2019-04-17 20:00:00 12.9 19 Sur 33 Sur 0 -- -- 90
2019-04-17 19:00:00 13.1 23 Sur 37 Sur 0 -- -- 91
2019-04-17 18:00:00 13.4 24 Sur 43 Sur 0.1 -- -- 89
2019-04-17 17:00:00 13.7 26 Sur 40 Sur 0 -- -- 88
2019-04-17 16:00:00 13.5 25 Sur 43 Sur 0.1 -- -- 90
2019-04-17 15:00:00 13.1 28 Sur 50 Sur 0.3 -- -- 90
2019-04-17 14:00:00 13.3 31 Sur 60 Sur 0 -- -- 76
2019-04-17 13:00:00 15.5 36 Sur 60 Sur 0 -- -- 62
2019-04-17 12:00:00 14.7 28 Sur 41 Sur 0 -- -- 65
2019-04-17 11:00:00 13.1 24 Sur 50 Sur 0 -- -- 65
2019-04-17 10:00:00 12.5 32 Sur 49 Sur 0 -- -- 65
2019-04-17 09:00:00 13.2 25 Sur 34 Sur 0 -- -- 61
2019-04-17 08:00:00 13 14 Sur 29 Sur 0 -- -- 55
2019-04-17 07:00:00 12.8 18 Sur 29 Sur 0 -- -- 53
2019-04-17 06:00:00 12.8 15 Sur 30 Sur 0 -- -- 53
2019-04-17 05:00:00 13.9 19 Sur 26 Sur 0 -- -- 52
2019-04-17 04:00:00 12.6 14 Sur 21 Sudeste 0 -- -- 57
2019-04-17 03:00:00 12.2 14 Sudeste 28 Sudeste 0 -- -- 57
2019-04-17 02:00:00 12.2 20 Este 26 Sudeste 0 -- -- 57
2019-04-17 01:00:00 11.6 16 Este 21 Este 0 -- -- 57
2019-04-17 00:00:00 11.6 13 Este 15 Este 0 -- -- 55
2019-04-16 23:00:00 13.1 9 Sudeste 17 Sudeste 0 -- -- 49
2019-04-16 22:00:00 13.5 6 Sudeste 13 Sudeste 0 -- -- 48
2019-04-16 21:00:00 13.6 9 Sudeste 24 Sur 0 -- -- 50
2019-04-16 20:00:00 14.2 17 Sur 29 Sur 0 -- -- 51
2019-04-16 19:00:00 14.9 24 Sur 36 Sur 0 -- -- 49
2019-04-16 18:00:00 16.2 24 Sur 40 Sur 0 -- -- 46
2019-04-16 17:00:00 15.5 32 Sur 48 Sur 0 -- -- 46
2019-04-16 16:00:00 16.9 34 Sur 50 Sur 0 -- -- 49
2019-04-16 15:00:00 15.8 33 Sur 47 Sur 0 -- -- 55
2019-04-16 14:00:00 16.7 27 Sur -- -- -- -- -- 61
2019-04-16 13:00:00 -- -- -- -- -- -- -- -- --
2019-04-16 12:00:00 -- -- -- -- -- -- -- -- --
2019-04-16 11:00:00 -- -- -- -- -- -- -- -- --
2019-04-16 10:00:00 12.3 29 Sur 47 Sur 0 -- -- 83
2019-04-16 09:00:00 11.9 28 Sur 44 Sur 0 -- -- 87
2019-04-16 08:00:00 11.8 26 Sur 43 Sur 0 -- -- 90
2019-04-16 07:00:00 11.6 25 Sur 39 Sur 0 -- -- 90
2019-04-16 06:00:00 11.8 26 Sur 40 Sur 0 -- -- 90
2019-04-16 05:00:00 11.6 26 Sur 37 Sudoeste 0 -- -- 91
2019-04-16 04:00:00 11.4 26 Sur 34 Sur 0 -- -- 91
2019-04-16 03:00:00 11.3 19 Sur 28 Sur 0 -- -- 90
2019-04-16 02:00:00 11.3 18 Sur 30 Sur 0 -- -- 90
2019-04-16 01:00:00 11.3 18 Sur 27 Sur 0 -- -- 89
2019-04-16 00:00:00 11.4 21 Sur 28 Sur 0 -- -- 88
2019-04-15 23:00:00 11.7 20 Sur 27 Sur 0 -- -- 85
2019-04-15 22:00:00 11.6 19 Sur 33 Sudoeste 0 -- -- 84
2019-04-15 21:00:00 11.9 24 Sudoeste 36 Sudoeste 0 -- -- 80
2019-04-15 20:00:00 13.2 28 Sudoeste 35 Sudoeste 0 -- -- 76
2019-04-15 19:00:00 13.5 29 Sudoeste 38 Sudoeste 0.2 -- -- 82
2019-04-15 18:00:00 14.8 28 Sudoeste 35 Sudoeste 0 -- -- 67
2019-04-15 17:00:00 15.3 27 Sudoeste 32 Sudoeste 0 -- -- 68
2019-04-15 16:00:00 14.6 27 Sudoeste 37 Oeste 0 -- -- 76
2019-04-15 15:00:00 13.8 30 Sudoeste 37 Sudoeste 0 -- -- 84
2019-04-15 14:00:00 13.6 28 Sudoeste 39 Sudoeste 0 -- -- 94
2019-04-15 13:00:00 12.7 31 Sudoeste 46 Sudoeste 0.3 -- -- 96
2019-04-15 12:00:00 11.9 34 Sudoeste 47 Sudoeste 0 -- -- 96
2019-04-15 11:00:00 12.1 33 Sudoeste 64 Sudoeste 3.8 -- -- 96
2019-04-15 10:00:00 12.3 45 Sudoeste 63 Sudoeste 1.3 -- -- 94
2019-04-15 09:00:00 12.4 47 Sudoeste 81 Sudoeste 0.4 -- -- 94
2019-04-15 08:00:00 13.9 51 Sudoeste 72 Sudoeste 0.1 -- -- 92
2019-04-15 07:00:00 14.3 42 Sur 64 Sur 0.1 -- -- 91
2019-04-15 06:00:00 14.5 38 Sur 62 Sur 0 -- -- 91
2019-04-15 05:00:00 14.6 39 Sur 54 Sur 0 -- -- 92
2019-04-15 04:00:00 14.4 30 Sur 45 Sur 0 -- -- 94
2019-04-15 03:00:00 14.5 30 Sur 43 Sur 0 -- -- 96
2019-04-15 02:00:00 14.6 29 Sur 42 Sur 0 -- -- 96
2019-04-15 01:00:00 14.5 28 Sur 39 Sur 0 -- -- 96
2019-04-15 00:00:00 14.7 24 Sur 37 Sur 0 -- -- 96
2019-04-14 23:00:00 14.9 24 Sur 37 Sur 0 -- -- 96
2019-04-14 22:00:00 14.8 24 Sur 40 Sur 0 -- -- 96
2019-04-14 21:00:00 14.9 27 Sur 47 Sur 0 -- -- 96
2019-04-14 20:00:00 15 33 Sur 45 Sur 0 -- -- 96
2019-04-14 19:00:00 15.4 31 Sur 42 Sur 0.1 -- -- 96
2019-04-14 18:00:00 15.6 27 Sur 43 Sur 0 -- -- 96
2019-04-14 17:00:00 15.8 31 Sur 44 Sur 0 -- -- 96
2019-04-14 16:00:00 15.9 31 Sur 40 Sur 0 -- -- 96
2019-04-14 15:00:00 15.7 26 Sur 36 Sur 0 -- -- 96
2019-04-14 14:00:00 15.4 27 Sur 40 Sur 0 -- -- 96
2019-04-14 13:00:00 15.1 25 Sur 39 Sur 0 -- -- 96
2019-04-14 12:00:00 14.9 25 Sur 35 Sur 0 -- -- 96
2019-04-14 11:00:00 14.6 23 Sur 36 Sur 0 -- -- 96
2019-04-14 10:00:00 14.3 27 Sur 36 Sur 0 -- -- 96
2019-04-14 09:00:00 14.1 26 Sur 38 Sur 0 -- -- 96
2019-04-14 08:00:00 13.7 27 Sur 39 Sur 0 -- -- 96
2019-04-14 07:00:00 13.7 26 Sur 35 Sur 0 -- -- 96
2019-04-14 06:00:00 13.8 24 Sur 40 Sur 0 -- -- 96
2019-04-14 05:00:00 13.7 25 Sur 36 Sur 0 -- -- 96
2019-04-14 04:00:00 13.8 27 Sur 41 Sur 0 -- -- 96
2019-04-14 03:00:00 13.7 31 Sur 45 Sur 0 -- -- 96
2019-04-14 02:00:00 13.8 31 Sur 43 Sur 0 -- -- 96
2019-04-14 01:00:00 13.6 30 Sur 43 Sur 0 -- -- 96
2019-04-14 00:00:00 13.6 26 Sur 43 Sur 0 -- -- 96
2019-04-13 23:00:00 13.6 30 Sur 44 Sur 0 -- -- 96
2019-04-13 22:00:00 13.5 31 Sur 41 Sur 0 -- -- 96
2019-04-13 21:00:00 13.4 31 Sur 45 Sur 0 -- -- 96
2019-04-13 20:00:00 13.5 32 Sur 46 Sur 0 -- -- 94
2019-04-13 19:00:00 13.6 34 Sur 52 Sur 0 -- -- 93
2019-04-13 18:00:00 14 36 Sur 55 Sur 0 -- -- 89
2019-04-13 17:00:00 14.6 37 Sur 54 Sur 0 -- -- 84
2019-04-13 16:00:00 14.5 34 Sur 51 Sur 0 -- -- 86
2019-04-13 15:00:00 15.1 35 Sur 50 Sur 0 -- -- 76
2019-04-13 14:00:00 14.9 33 Sur 48 Sur 0 -- -- 74
2019-04-13 13:00:00 13.6 28 Sur 43 Sur 0 -- -- 76
2019-04-13 12:00:00 13.2 27 Sur 41 Sur 0 -- -- 74
2019-04-13 11:00:00 13.6 26 Sur 40 Sur 0 -- -- 57
2019-04-13 10:00:00 13.5 22 Sur 33 Sur 0 -- -- 59
2019-04-13 09:00:00 12.6 18 Sur 35 Sur 0 -- -- 59
2019-04-13 08:00:00 12.5 21 Sur 33 Sur 0 -- -- 59
2019-04-13 07:00:00 12.2 18 Sur 31 Sur 0 -- -- 64
2019-04-13 06:00:00 11.8 20 Sur 30 Sur 0 -- -- 65
2019-04-13 05:00:00 11.8 23 Sur 31 Sur 0 -- -- 68
2019-04-13 04:00:00 11.4 19 Sur 24 Sur 0 -- -- 68
2019-04-13 03:00:00 11.2 17 Sudeste 27 Sur 0 -- -- 74
2019-04-13 02:00:00 11.4 17 Sur 22 Sudeste 0 -- -- 92
2019-04-13 01:00:00 11.6 15 Sur 22 Sur 0 -- -- 92
2019-04-13 00:00:00 11.8 15 Sur 18 Sur 0 -- -- 90
2019-04-12 23:00:00 11.6 12 Sur 15 Sur 0 -- -- 92
2019-04-12 22:00:00 12.2 12 Sudoeste 23 Sudoeste 0 -- -- 92
2019-04-12 21:00:00 12.6 15 Sudoeste 23 Sudoeste 0 -- -- 89
2019-04-12 20:00:00 13.7 19 Sudoeste 30 Sudoeste 0 -- -- 84
2019-04-12 19:00:00 14.3 18 Sudoeste 31 Sudoeste 0 -- -- 79
2019-04-12 18:00:00 15.1 21 Sudoeste 31 Sudoeste 0 -- -- 72
2019-04-12 17:00:00 15.8 21 Sudoeste 26 Sudoeste 0 -- -- 65
2019-04-12 16:00:00 15.8 18 Sudoeste 25 Sudoeste 0 -- -- 67
2019-04-12 15:00:00 15.7 21 Sudoeste 28 Sudoeste 0 -- -- 71
2019-04-12 14:00:00 15.5 20 Sudoeste 25 Sudoeste 0 -- -- 68
2019-04-12 13:00:00 14.6 12 Sudoeste 17 Sudoeste 0 -- -- 70
2019-04-12 12:00:00 13.9 12 Sudoeste 16 Sudoeste 0 -- -- 68
2019-04-12 11:00:00 13.5 12 Sudoeste 17 Sudeste 0 -- -- 64
2019-04-12 10:00:00 11.3 14 Sudeste 19 Sudeste 0 -- -- 68
2019-04-12 09:00:00 9 15 Sudeste 18 Sudeste 0 -- -- 76
2019-04-12 08:00:00 7.7 11 Este 15 Este 0 -- -- 76
2019-04-12 07:00:00 8.1 9 Este 13 Este 0 -- -- 76
2019-04-12 06:00:00 8.9 6 Sudeste 11 Este 0 -- -- 79
2019-04-12 05:00:00 8.5 9 Este 10 Este 0 -- -- 90
2019-04-12 04:00:00 9 4 Nordeste 8 Este 0 -- -- 92
2019-04-12 03:00:00 9 5 Este 10 Nordeste 0 -- -- 93
2019-04-12 02:00:00 9.4 8 Este 13 Nordeste 0 -- -- 92
2019-04-12 01:00:00 9.4 11 Nordeste 18 Nordeste 0 -- -- 91
2019-04-12 00:00:00 9.7 10 Nordeste 19 Nordeste 0 -- -- 89
2019-04-11 23:00:00 9.9 12 Este 25 Nordeste 0 -- -- 84
2019-04-11 22:00:00 10.6 17 Nordeste 26 Nordeste 0 -- -- 80
2019-04-11 21:00:00 11.2 20 Nordeste 35 Nordeste 0 -- -- 76
2019-04-11 20:00:00 12.2 28 Nordeste 35 Nordeste 0 -- -- 75
2019-04-11 19:00:00 13 28 Nordeste 33 Nordeste 0 -- -- 72
2019-04-11 18:00:00 13.4 27 Nordeste 32 Nordeste 0 -- -- 72
2019-04-11 17:00:00 13.6 28 Nordeste 34 Nordeste 0 -- -- 70
2019-04-11 16:00:00 13.8 27 Nordeste 31 Nordeste 0 -- -- 68
2019-04-11 15:00:00 14.4 20 Nordeste 26 Nordeste 0 -- -- 68
2019-04-11 14:00:00 14.1 19 Nordeste 25 Nordeste 0 -- -- 70
2019-04-11 13:00:00 13.8 17 Nordeste 21 Norte 0 -- -- 72
2019-04-11 12:00:00 13.5 13 Norte 17 Norte 0 -- -- 79
2019-04-11 11:00:00 11.3 5 Norte 8 Nordeste 0 -- -- 87
2019-04-11 10:00:00 11.2 4 Nordeste 14 Este 0 -- -- 93
2019-04-11 09:00:00 8.8 12 Este 15 Este 0 -- -- 94
2019-04-11 08:00:00 7.6 14 Este 17 Este 0 -- -- 94
2019-04-11 07:00:00 7.5 14 Este 17 Este 0 -- -- 93
2019-04-11 06:00:00 8 12 Este 14 Este 0 -- -- 93
2019-04-11 05:00:00 8.1 13 Este 16 Este 0 -- -- 93
2019-04-11 04:00:00 8.3 13 Este 17 Este 0 -- -- 91
2019-04-11 03:00:00 8.6 12 Este 15 Este 0 -- -- 89
2019-04-11 02:00:00 9.4 8 Este 13 Nordeste 0 -- -- 88
2019-04-11 01:00:00 9.6 10 Nordeste 16 Nordeste 0 -- -- 87
2019-04-11 00:00:00 10.3 11 Nordeste 18 Nordeste 0 -- -- 85
2019-04-10 23:00:00 10.8 13 Nordeste 20 Nordeste 0 -- -- 84
2019-04-10 22:00:00 11.1 17 Nordeste 19 Norte 0 -- -- 84
2019-04-10 21:00:00 11.3 16 Nordeste 20 Nordeste 0 -- -- 82
2019-04-10 20:00:00 11.9 15 Nordeste 21 Nordeste 0 -- -- 79
2019-04-10 19:00:00 12.7 17 Norte 22 Norte 0 -- -- 76
2019-04-10 18:00:00 14 17 Norte 22 Norte 0 -- -- 74
2019-04-10 17:00:00 14.1 16 Norte 19 Norte 0 -- -- 74
2019-04-10 16:00:00 14.5 16 Norte 22 Norte 0 -- -- 72
2019-04-10 15:00:00 14.7 17 Norte 26 Norte 0 -- -- 76
2019-04-10 14:00:00 13.8 20 Norte 26 Norte 0 -- -- 78
2019-04-10 13:00:00 14.1 19 Norte 28 Norte 0 -- -- 80
2019-04-10 12:00:00 12.7 21 Norte 28 Norte 0 -- -- 84
2019-04-10 11:00:00 12.4 22 Norte 30 Norte 0 -- -- 84
2019-04-10 10:00:00 11.4 24 Norte 33 Norte 0 -- -- 88
2019-04-10 09:00:00 10.9 19 Noroeste 33 Norte 0 -- -- 88
2019-04-10 08:00:00 10.5 21 Noroeste 30 Norte 0 -- -- 88
2019-04-10 07:00:00 10.3 18 Noroeste 32 Norte 0 -- -- 87
2019-04-10 06:00:00 10.3 20 Noroeste 31 Noroeste 0 -- -- 87
2019-04-10 05:00:00 10.3 23 Noroeste 40 Noroeste 0 -- -- 88
2019-04-10 04:00:00 10.9 28 Noroeste 42 Noroeste 0 -- -- 93
2019-04-10 03:00:00 11 23 Noroeste 45 Noroeste 0.3 -- -- 92
2019-04-10 02:00:00 10.9 31 Noroeste 44 Noroeste 0 -- -- 92
2019-04-10 01:00:00 11.2 29 Noroeste 45 Oeste 0.4 -- -- 92
2019-04-10 00:00:00 11.1 26 Noroeste 36 Noroeste 0 -- -- 91
2019-04-09 23:00:00 11 26 Noroeste 38 Noroeste 0 -- -- 91
2019-04-09 22:00:00 11.1 21 Oeste 39 Oeste 0 -- -- 91
2019-04-09 21:00:00 10.8 26 Oeste 46 Oeste 0 -- -- 90
2019-04-09 20:00:00 11.3 35 Oeste 55 Oeste 1.1 -- -- 88
2019-04-09 19:00:00 12.2 35 Oeste 51 Oeste 0 -- -- 84
2019-04-09 18:00:00 13 36 Oeste 54 Oeste 0.4 -- -- 87
2019-04-09 17:00:00 11 32 Oeste 51 Oeste 0.5 -- -- 80
2019-04-09 16:00:00 13.4 34 Oeste 47 Oeste 0.3 -- -- 87
2019-04-09 15:00:00 11.4 40 Oeste 56 Sudoeste 1 -- -- 90
2019-04-09 14:00:00 13.1 40 Sudoeste 54 Sudoeste 0 -- -- 80
2019-04-09 13:00:00 12.4 40 Sudoeste 51 Sudoeste 0 -- -- 79
2019-04-09 12:00:00 12.1 35 Sudoeste 47 Sudoeste 0.1 -- -- 84
2019-04-09 11:00:00 10.6 34 Sudoeste 50 Sudoeste 0.5 -- -- 84
2019-04-09 10:00:00 10.6 36 Sudoeste 49 Oeste 0 -- -- 84
2019-04-09 09:00:00 9.8 37 Oeste 53 Oeste 0 -- -- 84
2019-04-09 08:00:00 8.8 32 Oeste 55 Oeste 0.9 -- -- 84
2019-04-09 07:00:00 9.8 34 Oeste 50 Oeste 0 -- -- 84
2019-04-09 06:00:00 9.2 30 Sudoeste 36 Sudoeste 0.2 -- -- 90
2019-04-09 05:00:00 8.3 19 Sudoeste 53 Sudoeste 1.6 -- -- 90
2019-04-09 04:00:00 10.1 27 Sudoeste 55 Oeste 1.2 -- -- 91
2019-04-09 03:00:00 10.9 31 Sudoeste 47 Sudoeste 0 -- -- 87
2019-04-09 02:00:00 10.7 42 Sudoeste 57 Sudoeste 0 -- -- 87
2019-04-09 01:00:00 11.4 43 Sudoeste 57 Sudoeste 0 -- -- 87
2019-04-09 00:00:00 11.5 44 Sudoeste 61 Sudoeste 0 -- -- 88
2019-04-08 23:00:00 11.1 43 Sudoeste 60 Sudoeste 0 -- -- 89
2019-04-08 22:00:00 10.7 43 Sudoeste 58 Sudoeste 0 -- -- 89
2019-04-08 21:00:00 9.9 39 Sur 81 Sudoeste 0.5 -- -- 88
2019-04-08 20:00:00 11.6 49 Sudoeste 74 Sudoeste 0.2 -- -- 80
2019-04-08 19:00:00 12.4 48 Sur 73 Sudoeste 0 -- -- 74
2019-04-08 18:00:00 12.5 41 Sur 66 Sur 0 -- -- 72
2019-04-08 17:00:00 14.5 46 Sudoeste 70 Sur 0 -- -- 61
2019-04-08 16:00:00 14.2 46 Sudoeste 65 Sur 0.2 -- -- 64
2019-04-08 15:00:00 12.8 39 Sur 62 Sudoeste 0.1 -- -- 72
2019-04-08 14:00:00 12.8 40 Sudoeste 79 Sur 0.1 -- -- 76
2019-04-08 13:00:00 13.8 43 Sudoeste 60 Sudoeste 0 -- -- 65
2019-04-08 12:00:00 13.4 42 Sudoeste 58 Sudoeste 0 -- -- 68
2019-04-08 11:00:00 12 39 Sudoeste 51 Sudoeste 0 -- -- 72
2019-04-08 10:00:00 11.3 38 Sudoeste 50 Sudoeste 0 -- -- 76
2019-04-08 09:00:00 10.3 33 Sudoeste 51 Sudoeste 0 -- -- 79
2019-04-08 08:00:00 9.7 29 Sudoeste 45 Sudoeste 0 -- -- 82
2019-04-08 07:00:00 9.9 37 Sudoeste 50 Sudoeste 0 -- -- 81
2019-04-08 06:00:00 10.3 34 Sudoeste 48 Sudoeste 0 -- -- 84
2019-04-08 05:00:00 10.2 32 Sudoeste 46 Sudoeste 0 -- -- 85
2019-04-08 04:00:00 10.5 34 Sudoeste 43 Sudoeste 0 -- -- 86
2019-04-08 03:00:00 10.6 31 Sudoeste 40 Oeste 0 -- -- 89
2019-04-08 02:00:00 10.5 29 Sudoeste 45 Oeste 0 -- -- 94
2019-04-08 01:00:00 11.1 28 Sudoeste 36 Sudoeste 0.1 -- -- 96
2019-04-08 00:00:00 10.9 26 Oeste 33 Oeste 0 -- -- 96
2019-04-07 23:00:00 11.2 18 Sudoeste 27 Sudoeste 0.4 -- -- 96
2019-04-07 22:00:00 10.8 15 Oeste 49 Sudoeste 5.1 -- -- 96
2019-04-07 21:00:00 12.3 35 Sudoeste 49 Sudoeste 0 -- -- 96
2019-04-07 20:00:00 12.6 39 Sudoeste 53 Sur 0 -- -- 96
2019-04-07 19:00:00 12.9 29 Sur 40 Sur 0 -- -- 93
2019-04-07 18:00:00 11 26 Sur 57 Sudeste 1.1 -- -- 93
2019-04-07 17:00:00 10.3 31 Sur 49 Sur 1.9 -- -- 92
2019-04-07 16:00:00 10.3 21 Sur 50 Sur 0.8 -- -- 88
2019-04-07 15:00:00 11.1 26 Sur 49 Sur 0.1 -- -- 84
2019-04-07 14:00:00 11.2 36 Sur 55 Sur 0 -- -- 81
2019-04-07 13:00:00 11.9 30 Sur 45 Sur 0 -- -- 77
2019-04-07 12:00:00 11.3 22 Sur 32 Sur 0 -- -- 83
2019-04-07 11:00:00 10.2 15 Sur 26 Sur 0 -- -- 86
2019-04-07 10:00:00 9 16 Sur 28 Sudeste 0 -- -- 89
2019-04-07 09:00:00 7.6 16 Sudeste 27 Sudeste 0 -- -- 90
2019-04-07 08:00:00 7.6 17 Sudeste 22 Sur 0 -- -- 90
2019-04-07 07:00:00 7.5 15 Sudeste 21 Sudeste 0 -- -- 90
2019-04-07 06:00:00 7.4 12 Sur 22 Sur 0 -- -- 88
2019-04-07 05:00:00 7.5 7 Sur 19 Sudoeste 0.2 -- -- 88
2019-04-07 04:00:00 7 13 Sudeste 16 Sudeste 0 -- -- 85
2019-04-07 03:00:00 8.1 5 Sudoeste 13 Sudoeste 0.1 -- -- 84
2019-04-07 02:00:00 7.6 6 Sur 10 Sudoeste 0 -- -- 86
2019-04-07 01:00:00 7.1 7 Sur 14 Sudeste 0 -- -- 88
2019-04-07 00:00:00 7 10 Sudeste 13 Sudeste 0 -- -- 88
2019-04-06 23:00:00 7.4 6 Sudoeste 15 Sudeste 2.4 -- -- 89
2019-04-06 22:00:00 7.5 0 Calma 31 Oeste 2.7 -- -- 87
2019-04-06 21:00:00 8.3 16 Oeste 22 Oeste 0.1 -- -- 86
2019-04-06 20:00:00 8 15 Sudoeste 33 Oeste 0.3 -- -- 84
2019-04-06 19:00:00 8.8 14 Noroeste 55 Noroeste 2.7 -- -- 80
2019-04-06 18:00:00 12 26 Oeste 35 Oeste 0 -- -- 68
2019-04-06 17:00:00 12.3 27 Oeste 46 Noroeste 0.6 -- -- 76
2019-04-06 16:00:00 10.6 24 Noroeste 39 Noroeste 0.2 -- -- 68
2019-04-06 15:00:00 12.5 28 Noroeste 45 Noroeste 0 -- -- 65
2019-04-06 14:00:00 10.8 32 Noroeste 53 Noroeste 0 -- -- 77
2019-04-06 13:00:00 9.6 30 Noroeste 56 Noroeste 0 -- -- 88
2019-04-06 12:00:00 8.3 41 Noroeste 66 Noroeste 1 -- -- 89
2019-04-06 11:00:00 8.4 33 Noroeste 57 Noroeste 0.6 -- -- 87
2019-04-06 10:00:00 9 33 Noroeste 58 Noroeste 0.2 -- -- 84
2019-04-06 09:00:00 8.8 35 Noroeste 61 Noroeste 0 -- -- 83
2019-04-06 08:00:00 8.3 33 Noroeste 54 Noroeste 0.4 -- -- 88
2019-04-06 07:00:00 8 21 Noroeste 37 Noroeste 0.7 -- -- 88
2019-04-06 06:00:00 7.8 33 Oeste 52 Oeste 0.2 -- -- 89
2019-04-06 05:00:00 8 39 Oeste 68 Sudoeste 0.4 -- -- 90
2019-04-06 04:00:00 8.6 49 Sudoeste 68 Oeste 1.5 -- -- 88
2019-04-06 03:00:00 7.5 54 Oeste 75 Oeste 0.5 -- -- 81
2019-04-06 02:00:00 9.1 48 Sudoeste 63 Sudoeste 0.1 -- -- 84
2019-04-06 01:00:00 8.2 44 Sudoeste 61 Sudoeste 0 -- -- 85
2019-04-06 00:00:00 8.5 32 Oeste 63 Sudoeste 0.3 -- -- 83
2019-04-05 23:00:00 8.2 37 Oeste 65 Oeste 0.1 -- -- 80
2019-04-05 22:00:00 8.3 30 Oeste 59 Sudoeste 0.4 -- -- 81
2019-04-05 21:00:00 9.2 23 Sudoeste 28 Sudoeste 0 -- -- 79
2019-04-05 20:00:00 9.7 24 Oeste 33 Oeste 0.1 -- -- 75
2019-04-05 19:00:00 10.1 13 Oeste 39 Noroeste 0.4 -- -- 76
2019-04-05 18:00:00 10.3 17 Noroeste 28 Noroeste 0.1 -- -- 70
2019-04-05 17:00:00 12.3 19 Oeste 27 Oeste 0 -- -- 70
2019-04-05 16:00:00 11.9 17 Oeste 26 Oeste 0 -- -- 79
2019-04-05 15:00:00 8.6 14 Sudoeste 41 Oeste 0.5 -- -- 85
2019-04-05 14:00:00 9.2 16 Noroeste 46 Oeste 1.5 -- -- 85
2019-04-05 13:00:00 8.2 28 Oeste 48 Oeste 0.6 -- -- 87
2019-04-05 12:00:00 9.4 30 Sudoeste 50 Sudoeste 0.5 -- -- 90
2019-04-05 11:00:00 7.4 40 Sudoeste 60 Sudoeste 0.8 -- -- 86
2019-04-05 10:00:00 7.9 45 Sudoeste 62 Sudoeste 0.2 -- -- 84
2019-04-05 09:00:00 7.1 56 Sudoeste 72 Oeste 0.3 -- -- 81
2019-04-05 08:00:00 8.1 43 Sudoeste 56 Sudoeste 0 -- -- 68
2019-04-05 07:00:00 7.6 36 Sudoeste 56 Sudoeste 0 -- -- 71
2019-04-05 06:00:00 7.6 37 Sudoeste 54 Sudoeste 0 -- -- 74
2019-04-05 05:00:00 7.3 35 Sudoeste 46 Sudoeste 0 -- -- 76
2019-04-05 04:00:00 6.5 36 Oeste 48 Sudoeste 0.1 -- -- 76
2019-04-05 03:00:00 7 29 Sudoeste 51 Oeste 1.3 -- -- 76
2019-04-05 02:00:00 8.2 28 Oeste 47 Sudoeste 0 -- -- 68
2019-04-05 01:00:00 7.8 24 Oeste 55 Oeste 0 -- -- 74
2019-04-05 00:00:00 8.2 31 Oeste 41 Oeste 0 -- -- 70
2019-04-04 23:00:00 8.3 25 Oeste 37 Oeste 0 -- -- 76
2019-04-04 22:00:00 8.2 23 Oeste 44 Oeste 0 -- -- 81
2019-04-04 21:00:00 8.4 18 Oeste 45 Oeste 0.4 -- -- 83
2019-04-04 20:00:00 9.2 30 Oeste 45 Oeste 0.1 -- -- 80
2019-04-04 19:00:00 9.8 25 Oeste 37 Oeste 0 -- -- 84
2019-04-04 18:00:00 10 28 Oeste 39 Oeste 0 -- -- 94
2019-04-04 17:00:00 9.3 28 Oeste 64 Sudoeste 7.6 -- -- 96
2019-04-04 16:00:00 10.4 50 Sudoeste 70 Sudoeste 4.2 -- -- 96
2019-04-04 15:00:00 9.9 49 Sudoeste 65 Sudoeste 2.1 -- -- 96
2019-04-04 14:00:00 9.7 42 Sudoeste 62 Sur 2.1 -- -- 95
2019-04-04 13:00:00 10 43 Sudoeste 64 Sudoeste 0.8 -- -- 94
2019-04-04 12:00:00 9.3 38 Sur 57 Sudoeste 0.7 -- -- 92
2019-04-04 11:00:00 9.4 44 Sudoeste 53 Sudoeste 0.1 -- -- 84
2019-04-04 10:00:00 9.1 33 Sudoeste 46 Sudoeste 0 -- -- 74
2019-04-04 09:00:00 9 27 Sudoeste 35 Sudoeste 0 -- -- 79
2019-04-04 08:00:00 8.1 21 Sudoeste 29 Sudoeste 0 -- -- 77
2019-04-04 07:00:00 7.6 15 Oeste 24 Oeste 0 -- -- 77
2019-04-04 06:00:00 6.9 5 Sudoeste 13 Sudeste 0 -- -- 84
2019-04-04 05:00:00 7.1 6 Norte 42 Norte 0 -- -- 84
2019-04-04 04:00:00 7.7 14 Noroeste 23 Noroeste 0 -- -- 79
2019-04-04 03:00:00 7.2 14 Noroeste 47 Noroeste 1.1 -- -- 81
2019-04-04 02:00:00 8.5 18 Noroeste 42 Norte 0 -- -- 71
2019-04-04 01:00:00 8.8 25 Norte 39 Noroeste 0 -- -- 72
2019-04-04 00:00:00 8.6 26 Norte 38 Norte 0 -- -- 72
2019-04-03 23:00:00 8.5 27 Norte 46 Norte 0 -- -- 79
2019-04-03 22:00:00 8.4 28 Norte 54 Norte 0.3 -- -- 77
2019-04-03 21:00:00 8.8 31 Norte 100 Noroeste 0 -- -- 74
2019-04-03 20:00:00 8.6 31 Norte 45 Norte 0.3 -- -- 75
2019-04-03 19:00:00 8.3 36 Norte 57 Norte 1.4 -- -- 62
2019-04-03 18:00:00 11.3 26 Norte 54 Norte 0 -- -- 55
2019-04-03 17:00:00 11.1 33 Norte 43 Norte 0 -- -- 53
2019-04-03 16:00:00 11.8 33 Norte 44 Norte 0 -- -- 52
2019-04-03 15:00:00 11.5 34 Norte 43 Norte 0 -- -- 55
2019-04-03 14:00:00 11.1 35 Norte 51 Norte 0.1 -- -- 65
2019-04-03 13:00:00 10.7 36 Norte 48 Norte 0 -- -- 65
2019-04-03 12:00:00 8.8 28 Norte 50 Norte 0.4 -- -- 72
2019-04-03 11:00:00 10.5 35 Norte 51 Norte 0 -- -- 64
2019-04-03 10:00:00 9.2 28 Norte 52 Noroeste 0 -- -- 65
2019-04-03 09:00:00 9.3 40 Norte 51 Norte 0 -- -- 68
2019-04-03 08:00:00 9.3 32 Norte 43 Norte 0 -- -- 64
2019-04-03 07:00:00 9.1 30 Norte 44 Norte 0 -- -- 68
2019-04-03 06:00:00 9.1 37 Norte 48 Norte 0 -- -- 74
2019-04-03 05:00:00 8.9 21 Noroeste 37 Norte 0.1 -- -- 72
2019-04-03 04:00:00 9.3 29 Norte 47 Norte 0.1 -- -- 72
2019-04-03 03:00:00 9.3 28 Norte 41 Norte 0 -- -- 74
2019-04-03 02:00:00 9 17 Norte 40 Norte 0.1 -- -- 76
2019-04-03 01:00:00 9.8 22 Norte 46 Norte 0 -- -- 67
2019-04-03 00:00:00 10.4 25 Norte 35 Norte 0 -- -- 65
2019-04-02 23:00:00 9.9 23 Norte 35 Norte 0 -- -- 65
2019-04-02 22:00:00 10 25 Norte 37 Norte 0 -- -- 66
2019-04-02 21:00:00 10.5 26 Norte 36 Norte 0 -- -- 65
2019-04-02 20:00:00 11.3 27 Norte 33 Norte 0 -- -- 65
2019-04-02 19:00:00 12 22 Norte 29 Norte 0 -- -- 62
2019-04-02 18:00:00 13.3 19 Norte 28 Norte 0 -- -- 59
2019-04-02 17:00:00 13.7 20 Norte 26 Norte 0 -- -- 59
2019-04-02 16:00:00 14.3 18 Norte 27 Norte 0 -- -- 59
2019-04-02 15:00:00 13.7 19 Norte 27 Norte 0 -- -- 60
2019-04-02 14:00:00 13.5 22 Norte 30 Norte 0 -- -- 64
2019-04-02 13:00:00 13.2 25 Norte 29 Norte 0 -- -- 64
2019-04-02 12:00:00 13.3 23 Norte 32 Nordeste 0 -- -- 68
2019-04-02 11:00:00 12.6 28 Norte 32 Nordeste 0 -- -- 68
2019-04-02 10:00:00 11.7 27 Nordeste 33 Nordeste 0 -- -- 72
2019-04-02 09:00:00 11.4 30 Nordeste 36 Nordeste 0 -- -- 80
2019-04-02 08:00:00 11.4 28 Nordeste 34 Norte 0 -- -- 81
2019-04-02 07:00:00 11.3 29 Norte 35 Norte 0 -- -- 81
2019-04-02 06:00:00 11.5 30 Nordeste 36 Norte 0 -- -- 83
2019-04-02 05:00:00 11.4 25 Nordeste 36 Nordeste 0 -- -- 83
2019-04-02 04:00:00 11.3 30 Nordeste 37 Nordeste 0 -- -- 84
2019-04-02 03:00:00 11.3 30 Nordeste 35 Nordeste 0 -- -- 90
2019-04-02 02:00:00 11.7 27 Nordeste 40 Nordeste 0 -- -- 93
2019-04-02 01:00:00 11.9 36 Nordeste 41 Nordeste 0 -- -- 93
2019-04-02 00:00:00 11.7 28 Nordeste 40 Nordeste 0 -- -- 93
2019-04-01 23:00:00 12 35 Nordeste 43 Nordeste 0 -- -- 93
2019-04-01 22:00:00 12.1 37 Nordeste 45 Nordeste 0 -- -- 94
2019-04-01 21:00:00 12.3 36 Nordeste 49 Nordeste 0 -- -- 91
2019-04-01 20:00:00 12.9 43 Nordeste 54 Nordeste 0 -- -- 88
2019-04-01 19:00:00 13.4 44 Nordeste 53 Nordeste 0 -- -- 84
2019-04-01 18:00:00 13.8 45 Nordeste 55 Norte 0 -- -- 81
2019-04-01 17:00:00 14.2 45 Nordeste 58 Nordeste 0 -- -- 78
2019-04-01 16:00:00 14.2 47 Nordeste 55 Nordeste 0 -- -- 74
2019-04-01 15:00:00 14.3 39 Nordeste 47 Nordeste 0 -- -- 71
2019-04-01 14:00:00 14.8 31 Nordeste 41 Nordeste 0 -- -- 65
2019-04-01 13:00:00 15.3 28 Nordeste 37 Nordeste 0 -- -- 57
2019-04-01 12:00:00 15 23 Nordeste 29 Nordeste 0 -- -- 57
2019-04-01 11:00:00 14.6 14 Nordeste 23 Nordeste 0 -- -- 58
2019-04-01 10:00:00 12.7 10 Nordeste 18 Nordeste 0 -- -- 70
2019-04-01 09:00:00 10.9 13 Este 21 Este 0 -- -- 74
2019-04-01 08:00:00 10.9 12 Nordeste 18 Nordeste 0 -- -- 80
2019-04-01 07:00:00 10.9 13 Nordeste 26 Nordeste 0 -- -- 81
2019-04-01 06:00:00 10.9 14 Nordeste 27 Norte 0 -- -- 87
2019-04-01 05:00:00 10.8 15 Nordeste 23 Nordeste 0 -- -- 90
2019-04-01 04:00:00 11 14 Nordeste 23 Nordeste 0 -- -- 90
2019-04-01 03:00:00 11.1 14 Nordeste 27 Nordeste 0 -- -- 91
2019-04-01 02:00:00 11.5 17 Nordeste 31 Nordeste 0 -- -- 94
2019-04-01 01:00:00 11.4 15 Nordeste 25 Norte 0 -- -- 94
2019-04-01 00:00:00 11.9 21 Nordeste 27 Nordeste 0 -- -- 94
2019-03-31 23:00:00 12 21 Nordeste 27 Nordeste 0 -- -- 94
2019-03-31 22:00:00 12.1 18 Nordeste 35 Nordeste 0 -- -- 93
2019-03-31 21:00:00 12.2 25 Nordeste 40 Nordeste 0 -- -- 92
2019-03-31 20:00:00 12.5 32 Nordeste 39 Nordeste 0 -- -- 88
2019-03-31 19:00:00 13.3 33 Nordeste 44 Nordeste 0 -- -- 85
2019-03-31 18:00:00 14.2 31 Nordeste 40 Nordeste 0 -- -- 82
2019-03-31 17:00:00 13.4 31 Nordeste 41 Nordeste 0 -- -- 82
2019-03-31 16:00:00 14.1 37 Nordeste 42 Nordeste 0 -- -- 81
2019-03-31 15:00:00 13.9 32 Nordeste 37 Nordeste 0 -- -- 83
2019-03-31 14:00:00 13.7 27 Nordeste 32 Nordeste 0 -- -- 85
2019-03-31 13:00:00 12.6 26 Nordeste 30 Norte 0 -- -- 90
2019-03-31 12:00:00 12.6 22 Nordeste 28 Norte 0 -- -- 90
2019-03-31 11:00:00 11.8 14 Nordeste 19 Nordeste 0 -- -- 93
2019-03-31 10:00:00 10.2 13 Nordeste 22 Nordeste 0 -- -- 94
2019-03-31 09:00:00 9 9 Nordeste 24 Nordeste 0.1 -- -- 94
2019-03-31 08:00:00 8.6 6 Este 17 Nordeste 0 -- -- 94
2019-03-31 07:00:00 9.6 13 Nordeste 22 Nordeste 0 -- -- 94
2019-03-31 06:00:00 9.2 12 Nordeste 20 Nordeste 0 -- -- 94
2019-03-31 05:00:00 9.5 11 Norte 18 Nordeste 0 -- -- 94
2019-03-31 03:00:00 9.5 8 Nordeste 11 Nordeste 0 -- -- 94
2019-03-31 01:00:00 9.1 9 Nordeste 13 Este 0 -- -- 93
2019-03-31 00:00:00 9.4 10 Nordeste 13 Nordeste 0 -- -- 92
2019-03-30 23:00:00 10 7 Nordeste 10 Norte 0 -- -- 91
2019-03-30 22:00:00 9.7 8 Nordeste 13 Nordeste 0 -- -- 89
2019-03-30 21:00:00 10.1 9 Nordeste 14 Nordeste 0 -- -- 87
2019-03-30 20:00:00 10.9 9 Nordeste 12 Nordeste 0 -- -- 82
2019-03-30 19:00:00 13 5 Norte 16 Oeste 0 -- -- 76
2019-03-30 18:00:00 14 12 Oeste 20 Oeste 0 -- -- 72
2019-03-30 17:00:00 15.1 17 Sudoeste 23 Sudoeste 0 -- -- 72
2019-03-30 16:00:00 15.1 17 Sudoeste 28 Sudoeste 0 -- -- 72
2019-03-30 15:00:00 15.2 20 Sudoeste 29 Sudoeste 0 -- -- 74
2019-03-30 14:00:00 15.6 22 Sudoeste 31 Sudoeste 0 -- -- 74
2019-03-30 13:00:00 14.1 15 Sudoeste 24 Sudoeste 0 -- -- 81
2019-03-30 12:00:00 13.6 21 Sudoeste 26 Sudoeste 0 -- -- 84
2019-03-30 11:00:00 13.3 17 Sudoeste 22 Sudoeste 0 -- -- 88
2019-03-30 10:00:00 12.2 7 Sudoeste 17 Sur 0 -- -- 91
2019-03-30 09:00:00 10.9 13 Sur 17 Sur 0 -- -- 92
2019-03-30 08:00:00 9.5 10 Sur 19 Sur 0 -- -- 91
2019-03-30 07:00:00 9.4 13 Sur 17 Sur 0 -- -- 88
2019-03-30 06:00:00 9.8 11 Sur 15 Sur 0 -- -- 84
2019-03-30 05:00:00 10.3 11 Sur 15 Sur 0 -- -- 80
2019-03-30 04:00:00 10.2 11 Sudeste 15 Sudeste 0 -- -- 80
2019-03-30 03:00:00 10.6 8 Sur 12 Sudeste 0 -- -- 76
2019-03-30 02:00:00 11.1 8 Sur 13 Sur 0 -- -- 76
2019-03-30 01:00:00 11.7 9 Sur 13 Sudeste 0 -- -- 68
2019-03-30 00:00:00 11.3 6 Sur 10 Sudeste 0 -- -- 64
2019-03-29 23:00:00 11.6 6 Sudeste 8 Sudeste 0 -- -- 65
2019-03-29 22:00:00 12.6 4 Sudeste 7 Sudeste 0 -- -- 62
2019-03-29 21:00:00 13 0 Calma 4 Nordeste 0 -- -- 58
2019-03-29 20:00:00 13.2 3 Nordeste 9 Nordeste 0 -- -- 66
2019-03-29 19:00:00 14.5 7 Nordeste 12 Nordeste 0 -- -- 70
2019-03-29 18:00:00 15 4 Norte 10 Norte 0 -- -- 68
2019-03-29 17:00:00 16 4 Norte 10 Noroeste 0 -- -- 64
2019-03-29 16:00:00 17.1 5 Noroeste 10 Oeste 0 -- -- 57
2019-03-29 15:00:00 15.9 5 Norte 12 Norte 0 -- -- 61
2019-03-29 14:00:00 17.1 3 Norte 9 Norte 0 -- -- 55
2019-03-29 13:00:00 17.7 5 Oeste 14 Norte 0 -- -- 49
2019-03-29 12:00:00 18.1 4 Oeste 13 Sur 0 -- -- 47
2019-03-29 11:00:00 15.5 5 Nordeste 9 Nordeste 0 -- -- 59
2019-03-29 10:00:00 16.5 3 Este 12 Sudeste 0 -- -- 53
2019-03-29 09:00:00 13.3 11 Sudeste 19 Sudeste 0 -- -- 57
2019-03-29 08:00:00 10.6 14 Sudeste 20 Sudeste 0 -- -- 62
2019-03-29 07:00:00 10.2 10 Sudeste 17 Sudeste 0 -- -- 64
2019-03-29 06:00:00 10.1 13 Sudeste 15 Sudeste 0 -- -- 65
2019-03-29 05:00:00 9.5 7 Este 13 Este 0 -- -- 65
2019-03-29 04:00:00 9.7 11 Nordeste 23 Este 0 -- -- 65
2019-03-29 03:00:00 9.7 16 Nordeste 30 Nordeste 0 -- -- 65
2019-03-29 02:00:00 10.2 17 Nordeste 30 Nordeste 0 -- -- 65
2019-03-29 01:00:00 10.7 23 Nordeste 37 Nordeste 0 -- -- 65
2019-03-29 00:00:00 11 22 Nordeste 40 Nordeste 0 -- -- 65
2019-03-28 23:00:00 11.1 18 Nordeste 32 Nordeste 0 -- -- 64
2019-03-28 22:00:00 11.6 16 Nordeste 45 Nordeste 0 -- -- 61
2019-03-28 21:00:00 12.5 29 Nordeste 50 Nordeste 0 -- -- 62
2019-03-28 20:00:00 12.7 38 Nordeste 53 Nordeste 0 -- -- 65
2019-03-28 19:00:00 13.4 39 Nordeste 49 Nordeste 0 -- -- 65
2019-03-28 18:00:00 14 40 Nordeste 50 Nordeste 0 -- -- 64
2019-03-28 17:00:00 14 39 Nordeste 53 Nordeste 0 -- -- 64
2019-03-28 16:00:00 14.7 39 Nordeste 60 Nordeste 0 -- -- 61
2019-03-28 15:00:00 14.3 44 Nordeste 57 Nordeste 0 -- -- 62
2019-03-28 14:00:00 15.2 35 Nordeste 48 Nordeste 0 -- -- 59
2019-03-28 13:00:00 14.6 37 Nordeste 47 Nordeste 0 -- -- 57
2019-03-28 12:00:00 14.1 36 Nordeste 44 Nordeste 0 -- -- 51
2019-03-28 11:00:00 14.1 30 Nordeste 37 Nordeste 0 -- -- 49
2019-03-28 10:00:00 13.4 22 Nordeste 33 Nordeste 0 -- -- 50
2019-03-28 09:00:00 12 21 Nordeste 40 Nordeste 0 -- -- 49
2019-03-28 08:00:00 10.9 19 Nordeste 33 Nordeste 0 -- -- 51
2019-03-28 07:00:00 10.7 21 Nordeste 31 Nordeste 0 -- -- 53
2019-03-28 06:00:00 10.2 14 Nordeste 27 Nordeste 0 -- -- 53
2019-03-28 05:00:00 10.4 16 Nordeste 31 Nordeste 0 -- -- 54
2019-03-28 04:00:00 10.6 14 Nordeste 32 Nordeste 0 -- -- 53
2019-03-28 03:00:00 10.7 18 Nordeste 39 Este 0 -- -- 53
2019-03-28 02:00:00 10.7 26 Nordeste 48 Nordeste 0 -- -- 57
2019-03-28 01:00:00 10.8 27 Nordeste 53 Nordeste 0 -- -- 56
2019-03-28 00:00:00 11.3 40 Nordeste 64 Nordeste 0 -- -- 55
2019-03-27 23:00:00 11.8 40 Nordeste 62 Nordeste 0 -- -- 52
2019-03-27 22:00:00 12.1 40 Nordeste 62 Nordeste 0 -- -- 53
2019-03-27 21:00:00 12.4 38 Nordeste 54 Nordeste 0 -- -- 55
2019-03-27 20:00:00 12.7 44 Nordeste 60 Nordeste 0 -- -- 59
2019-03-27 19:00:00 13.2 44 Nordeste 55 Nordeste 0 -- -- 59
2019-03-27 18:00:00 14.1 40 Nordeste 51 Nordeste 0 -- -- 60
2019-03-27 17:00:00 15 35 Nordeste 50 Nordeste 0 -- -- 58
2019-03-27 16:00:00 14.7 39 Nordeste 53 Nordeste 0 -- -- 62
2019-03-27 15:00:00 14.5 42 Nordeste 52 Nordeste 0 -- -- 61
2019-03-27 14:00:00 14.8 41 Nordeste 57 Nordeste 0 -- -- 56
2019-03-27 13:00:00 15.4 31 Nordeste 40 Nordeste 0 -- -- 45
2019-03-27 12:00:00 15 32 Nordeste 44 Nordeste 0 -- -- 45
2019-03-27 11:00:00 15.2 23 Nordeste 32 Nordeste 0 -- -- 38
2019-03-27 10:00:00 13.5 17 Nordeste 28 Nordeste 0 -- -- 38
2019-03-27 09:00:00 12.1 12 Nordeste 31 Este 0 -- -- 39
2019-03-27 08:00:00 9.8 19 Este 30 Este 0 -- -- 42
2019-03-27 07:00:00 10 13 Este 30 Nordeste 0 -- -- 43
2019-03-27 06:00:00 9.8 20 Nordeste 32 Nordeste 0 -- -- 48
2019-03-27 05:00:00 9.9 14 Nordeste 29 Nordeste 0 -- -- 49
2019-03-27 04:00:00 9.8 16 Nordeste 31 Este 0 -- -- 52
2019-03-27 03:00:00 9.9 0 Calma 44 Nordeste 0 -- -- 53
2019-03-27 02:00:00 10.8 22 Nordeste 38 Nordeste 0 -- -- 53
2019-03-27 01:00:00 10.6 12 Nordeste 38 Nordeste 0 -- -- 53
2019-03-27 00:00:00 10.8 28 Este 37 Nordeste 0 -- -- 54
2019-03-26 23:00:00 10.9 16 Nordeste 28 Nordeste 0 -- -- 57
2019-03-26 22:00:00 11.6 23 Nordeste 44 Norte 0 -- -- 56
2019-03-26 21:00:00 12.1 29 Nordeste 41 Nordeste 0 -- -- 55
2019-03-26 20:00:00 12.6 16 Nordeste 46 Nordeste 0 -- -- 52
2019-03-26 19:00:00 13.8 36 Nordeste 55 Nordeste 0 -- -- 51
2019-03-26 18:00:00 14.4 39 Nordeste 72 Nordeste 0 -- -- 51
2019-03-26 17:00:00 14.3 45 Nordeste 62 Nordeste 0 -- -- 53
2019-03-26 16:00:00 14.2 48 Nordeste 67 Nordeste 0 -- -- 56
2019-03-26 15:00:00 14.3 54 Nordeste 67 Nordeste 0 -- -- 53
2019-03-26 14:00:00 15 49 Nordeste 62 Nordeste 0 -- -- 50
2019-03-26 13:00:00 14.7 45 Nordeste 62 Nordeste 0 -- -- 47
2019-03-26 12:00:00 14.6 38 Nordeste 55 Nordeste 0 -- -- 47
2019-03-26 11:00:00 13.7 30 Nordeste 54 Nordeste 0 -- -- 47
2019-03-26 10:00:00 12.1 36 Nordeste 59 Nordeste 0 -- -- 51
2019-03-26 09:00:00 11.4 21 Nordeste 42 Nordeste 0 -- -- 53
2019-03-26 08:00:00 10.1 26 Nordeste 40 Nordeste 0 -- -- 56
2019-03-26 07:00:00 9.8 24 Nordeste 63 Nordeste 0 -- -- 55
2019-03-26 06:00:00 10.2 40 Nordeste 73 Nordeste 0 -- -- 59
2019-03-26 05:00:00 10.2 51 Nordeste 73 Nordeste 0 -- -- 62
2019-03-26 04:00:00 10.2 37 Nordeste 66 Nordeste 0 -- -- 64
2019-03-26 03:00:00 10.5 41 Nordeste 72 Nordeste 0 -- -- 62
2019-03-26 02:00:00 10.9 46 Nordeste 72 Nordeste 0 -- -- 62
2019-03-26 01:00:00 11.1 49 Nordeste 78 Nordeste 0 -- -- 62
2019-03-26 00:00:00 11.2 46 Nordeste 75 Norte 0 -- -- 62
2019-03-25 23:00:00 11.2 45 Nordeste 76 Nordeste 0 -- -- 64
2019-03-25 22:00:00 11.3 45 Nordeste 73 Nordeste 0 -- -- 65
2019-03-25 21:00:00 11.8 50 Nordeste 78 Nordeste 0 -- -- 65
2019-03-25 20:00:00 11.9 46 Nordeste 64 Nordeste 0 -- -- 70
2019-03-25 19:00:00 12.5 40 Nordeste 69 Nordeste 0 -- -- 70
2019-03-25 18:00:00 12.9 50 Nordeste 80 Nordeste 0 -- -- 70
2019-03-25 17:00:00 13.2 58 Nordeste 77 Nordeste 0 -- -- 68
2019-03-25 16:00:00 13.3 63 Nordeste 74 Nordeste 0 -- -- 68
2019-03-25 15:00:00 13.6 60 Nordeste 71 Nordeste 0 -- -- 65
2019-03-25 14:00:00 14 53 Nordeste 64 Nordeste 0 -- -- 64
2019-03-25 13:00:00 14.4 45 Nordeste 57 Nordeste 0 -- -- 61
2019-03-25 12:00:00 14.1 37 Nordeste 52 Nordeste 0 -- -- 60
2019-03-25 11:00:00 13.2 36 Nordeste 52 Nordeste 0 -- -- 65
2019-03-25 10:00:00 12.3 31 Nordeste 48 Nordeste 0 -- -- 71
2019-03-25 09:00:00 11.4 33 Nordeste 57 Nordeste 0 -- -- 75
2019-03-25 08:00:00 10.9 33 Nordeste 53 Nordeste 0 -- -- 75
2019-03-25 07:00:00 11 35 Nordeste 59 Nordeste 0 -- -- 74
2019-03-25 06:00:00 11 37 Nordeste 57 Nordeste 0 -- -- 75
2019-03-25 05:00:00 11.4 40 Nordeste 63 Nordeste 0 -- -- 72
2019-03-25 04:00:00 11.4 36 Nordeste 59 Norte 0 -- -- 72
2019-03-25 03:00:00 11.4 33 Nordeste 49 Nordeste 0 -- -- 68
2019-03-25 02:00:00 11.7 30 Nordeste 45 Nordeste 0 -- -- 67
2019-03-25 01:00:00 11.8 29 Nordeste 47 Nordeste 0 -- -- 61
2019-03-25 00:00:00 12.1 28 Nordeste 59 Nordeste 0 -- -- 61